Neche, North Dakota
Current Conditions -  °F | °C
As of 3:35 PM on Wednesday 26 Nov 2014 (Local Time) from K2C8 Reporting Station
Haze Haze  
Wind Chill: -16°   Ceiling: Unl
Heat Index:   Visibility: 5mi
Dew Point: -6°   Wind: 9mph
Humidity: 78%   Direction: 350°N
Pressure: 30.5"   Gusts: NA
Location:  48.99°N, 97.55°W
Report Text: K2C8 262135Z AUTO 35008KT 5SM HZ SCT012 M18/M21 A3050 RMK AO2
Loading
Personal Weather Stations






























Interactive Weather Map New forecast layout! Learn more

10-Day Weather Forecast

Advertisements
Track Severe Weather on mobile